Sunday, May 27, 2018, 9:41 AM EDT
Back to Local

KJFK, Kennedy International Airport

Location: Rosedale, NY, United States Lat: 40.633
Local Time: 9:41 AM EDT (13:41 GMT) Lon: -73.767
Time Zone: US/Eastern Elev: 13 ft

Show me the last for .
Show Decoded

2018-05-27 09:18 METAR KJFK 271318Z 06007KT 4SM RA BR OVC008 17/17 A3001 RMK AO2 P0009 T01720172
                 =
2018-05-27 08:51 METAR KJFK 271251Z 04010KT 4SM RA BR BKN011 BKN055 OVC095 17/17 A3000 RMK AO2
                 SLP157 P0027 T01720172 =
2018-05-27 07:58 METAR KJFK 271158Z 05004KT 4SM +RA BR BKN012 BKN018 OVC043 17/17 A2998 RMK AO2
                 P0004 T01720172 =
2018-05-27 07:51 METAR KJFK 271151Z 05004KT 4SM RA BR SCT012 BKN018 OVC070 17/17 A2998 RMK AO2
                 TSB25E40 SLP151 P0007 60019 70019 T01670167 10217 20161 51011 =
2018-05-27 07:46 METAR KJFK 271146Z 07004KT 4SM RA BR SCT012 BKN017 OVC070 17/17 A2998 RMK AO2
                 LTG DSNT W TSB25E40 P0005 =
2018-05-27 07:31 METAR KJFK 271131Z 00000KT 5SM -TSRA BR FEW012 BKN019 BKN110 17/16 A2998 RMK AO2
                 LTG DSNT S-W TSB25 P0001 T01670161 =
2018-05-27 07:23 METAR KJFK 271123Z 08003KT 6SM -RA BR FEW013 BKN019 OVC110 16/16 A2998 RMK AO2
                 LTG DSNT S AND W P0000 T01610161 =
2018-05-27 06:51 METAR KJFK 271051Z 08009KT 4SM -RA BR FEW031 BKN090 OVC120 16/16 A2998 RMK AO2
                 SLP150 CB DSNT SE-SW P0011 T01610161 =
2018-05-27 05:51 METAR KJFK 270951Z 06012KT 9SM RA SCT060 SCT080 OVC130 19/16 A2994 RMK AO2 LTG
                 DSNT S AND SW RAB12 SLP139 P0001 T01940161 =
2018-05-27 04:51 METAR KJFK 270851Z 08009KT 10SM SCT032 SCT120 BKN150 BKN200 20/17 A2992 RMK AO2
                 SLP132 T02000167 52019 =
2018-05-27 03:51 METAR KJFK 270751Z 09012KT 10SM BKN032 BKN085 OVC140 20/18 A2991 RMK AO2 LTG
                 DSNT S AND SW SLP128 T02000183 =
2018-05-27 02:51 METAR KJFK 270651Z 00000KT 10SM FEW060 SCT120 BKN140 OVC200 21/19 A2988 RMK AO2
                 LTG DSNT S AND SW SLP116 FRQ LTGICCG DSNT S-SW CB DSNT S-SW MOV NE T02110189 =
2018-05-27 01:51 METAR KJFK 270551Z 06003KT 10SM FEW060 SCT130 OVC200 22/18 A2987 RMK AO2 LTG
                 DSNT SW SLP113 OCNL LTGIC DSNT SW CB DSNT SW MOV NE T02170183 10239 20206 58001
                 =
2018-05-27 00:51 METAR KJFK 270451Z 00000KT 10SM FEW060 BKN130 BKN200 BKN250 21/18 A2988 RMK AO2
                 SLP119 T02060183 402720194 =
2018-05-26 23:51 METAR KJFK 270351Z 17004KT 10SM FEW060 FEW090 FEW150 SCT200 BKN250 21/19 A2988
                 RMK AO2 SLP117 T02060189 =
2018-05-26 22:51 METAR KJFK 270251Z 22004KT 10SM FEW060 SCT085 SCT150 SCT200 BKN250 23/18 A2987
                 RMK AO2 SLP114 T02280183 53013 =
2018-05-26 21:51 METAR KJFK 270151Z 00000KT 10SM FEW065 SCT080 SCT150 BKN250 22/19 A2986 RMK AO2
                 SLP110 T02170189 =
2018-05-26 20:51 METAR KJFK 270051Z COR 00000KT 10SM FEW065 SCT110 SCT150 BKN250 23/19 A2984 RMK
                 AO2 SLP103 FRQ LTGIC DSNT S CB DSNT S T02280189 =
2018-05-26 19:51 METAR KJFK 262351Z 00000KT 10SM FEW065 SCT100 SCT150 BKN250 22/18 A2983 RMK AO2
                 SLP102 CB DSNT S T02170183 10272 20211 53012 =
2018-05-26 18:51 METAR KJFK 262251Z 00000KT 10SM FEW065 FEW110 SCT170 BKN250 23/19 A2981 RMK AO2
                 LTG DSNT S AND SW SLP095 CB DSNT NE AND SW T02280194 =
2018-05-26 17:51 METAR KJFK 262151Z 18012KT 10SM FEW055 FEW100 SCT150 BKN250 23/19 A2979 RMK AO2
                 LTG DSNT N SLP089 CB DSNT N AND W T02330194 =
2018-05-26 16:51 METAR KJFK 262051Z 18013KT 10SM FEW055 SCT100 SCT150 BKN250 26/21 A2980 RMK AO2
                 SLP090 T02560206 55005 =
2018-05-26 15:51 METAR KJFK 261951Z 18012KT 10SM FEW055 FEW095 SCT130 BKN230 26/21 A2979 RMK AO2
                 SLP089 T02610206 =
2018-05-26 14:51 METAR KJFK 261851Z 18011KT 10SM FEW065 FEW095 SCT130 BKN250 26/21 A2981 RMK AO2
                 SLP093 T02610206 =
2018-05-26 13:51 METAR KJFK 261751Z 18010KT 10SM FEW065 SCT130 BKN250 27/21 A2981 RMK AO2 SLP094
                 T02720206 10272 20222 56010 =
2018-05-26 12:51 METAR KJFK 261651Z 20010KT 10SM FEW035 SCT090 SCT150 BKN250 27/21 A2982 RMK AO2
                 SLP097 T02720206 =
2018-05-26 11:51 METAR KJFK 261551Z 20011KT 10SM SCT032 SCT090 BKN150 BKN250 24/19 A2983 RMK AO2
                 SLP100 T02390194 =
2018-05-26 10:51 METAR KJFK 261451Z 20009KT 10SM BKN250 26/21 A2984 RMK AO2 SLP105 T02610206
                 50000 =
2018-05-26 09:51 METAR KJFK 261351Z 23013KT 10SM FEW080 SCT250 26/21 A2984 RMK AO2 SLP105
                 T02560206 =

Support USWX by starting your Amazon purchase here.